Sachse's Hourly Summary for Monday, May 14, 2018
Hour Temp
(f)
RH
(%)
Solar Rad.
(MJ/m2)
Rainfall
(in)
Wind
(mph)
5/14/2018 12:00 AM 77 67 0 0 2.45
5/14/2018 1:00 AM 76 71 0 0 2.27
5/14/2018 2:00 AM 76 72 0 0 2.96
5/14/2018 3:00 AM 75 75 0 0 2.62
5/14/2018 4:00 AM 74 78 0 0 3.77
5/14/2018 5:00 AM 73 80 0 0 3.94
5/14/2018 6:00 AM 72 83 0 0 2.69
5/14/2018 7:00 AM 72 84 0.01 0 4.53
5/14/2018 8:00 AM 72 84 0.29 0 5.21
5/14/2018 9:00 AM 74 78 0.94 0 6.84
5/14/2018 10:00 AM 76 70 1.04 0 8.3
5/14/2018 11:00 AM 78 65 1.5 0 8.79
5/14/2018 12:00 PM 80 60 2 0 8.16
5/14/2018 1:00 PM 82 53 2.47 0 8.9
5/14/2018 2:00 PM 84 52 2.37 0 8.53
5/14/2018 3:00 PM 85 49 2.18 0 8.3
5/14/2018 4:00 PM 86 47 2.42 0 8.53
5/14/2018 5:00 PM 86 47 1.81 0 7.88
5/14/2018 6:00 PM 85 50 0.79 0 8.31
5/14/2018 7:00 PM 85 49 0.67 0 7.84
5/14/2018 8:00 PM 83 51 0.14 0 6.5
5/14/2018 9:00 PM 81 62 0.01 0 4.24
5/14/2018 10:00 PM 79 65 0 0 5.1
5/14/2018 11:00 PM 78 67 0 0 6.14
Data Summary 78 64 18.64 0.00 5.95